createdAt,value
2018-04-15T00:01:48.925Z,95683.41
2018-04-15T00:04:17.317Z,95683.91
2018-04-15T00:06:45.686Z,95680.47
2018-04-15T00:09:14.021Z,95677.17
2018-04-15T00:11:42.338Z,95678.13
2018-04-15T00:14:10.684Z,95667.81
2018-04-15T00:16:38.999Z,95664.37
2018-04-15T00:19:07.344Z,95656.37
2018-04-15T00:21:35.655Z,95652.28
2018-04-15T00:24:03.985Z,95654.19
2018-04-15T00:26:32.421Z,95651.13
2018-04-15T00:29:00.778Z,95650.25
2018-04-15T00:31:29.166Z,95659.98
2018-04-15T00:33:57.505Z,95657.57
2018-04-15T00:36:25.823Z,95649.03
2018-04-15T00:38:54.197Z,95645.01
2018-04-15T00:41:22.532Z,95640.44
2018-04-15T00:43:50.832Z,95641.55
2018-04-15T00:46:19.177Z,95634.92
2018-04-15T00:48:47.508Z,95637.11
2018-04-15T00:51:15.837Z,95628.31
2018-04-15T00:53:56.002Z,95632.34
2018-04-15T00:56:24.424Z,95629.12
2018-04-15T00:58:52.803Z,95625.73
2018-04-15T01:01:21.146Z,95628.51
2018-04-15T01:03:49.465Z,95632.86
2018-04-15T01:06:17.829Z,95630.25
2018-04-15T01:08:46.151Z,95625.91
2018-04-15T01:11:14.587Z,95626.58
2018-04-15T01:13:42.969Z,95632.98
2018-04-15T01:16:11.341Z,95637.02
2018-04-15T01:18:39.659Z,95633.08
2018-04-15T01:21:08.089Z,95640.52
2018-04-15T01:23:36.397Z,95633.98
2018-04-15T01:26:04.753Z,95638.17
2018-04-15T01:28:33.129Z,95638.39
2018-04-15T01:31:01.458Z,95637.93
2018-04-15T01:33:29.886Z,95639.90
2018-04-15T01:35:58.201Z,95637.20
2018-04-15T01:38:26.537Z,95632.95
2018-04-15T01:40:54.913Z,95636.41
2018-04-15T01:43:23.293Z,95636.64
2018-04-15T01:45:51.665Z,95626.93
2018-04-15T01:48:20.128Z,95619.70
2018-04-15T01:50:48.524Z,95613.86
2018-04-15T01:53:16.872Z,95612.45
2018-04-15T01:55:45.188Z,95618.73
2018-04-15T01:58:14.482Z,95618.71
2018-04-15T02:00:42.794Z,95614.09
2018-04-15T02:03:11.145Z,95619.17
2018-04-15T02:05:39.538Z,95610.77
2018-04-15T02:08:07.896Z,95600.36
2018-04-15T02:10:37.162Z,95597.42
2018-04-15T02:13:05.492Z,95585.14
2018-04-15T02:15:33.853Z,95593.36
2018-04-15T02:18:02.196Z,95592.80
2018-04-15T02:20:30.509Z,95591.06
2018-04-15T02:22:58.814Z,95590.69
2018-04-15T02:25:27.141Z,95583.89
2018-04-15T02:27:56.462Z,95581.22
2018-04-15T02:30:24.800Z,95584.22
2018-04-15T02:32:53.139Z,95579.91
2018-04-15T02:35:21.449Z,95582.75
2018-04-15T02:37:49.869Z,95580.93
2018-04-15T02:40:18.257Z,95579.31
2018-04-15T02:42:46.558Z,95581.74
2018-04-15T02:45:14.894Z,95571.33
2018-04-15T02:47:43.209Z,95568.64
2018-04-15T02:50:11.549Z,95570.97
2018-04-15T02:52:39.856Z,95577.27
2018-04-15T02:55:08.194Z,95565.83
2018-04-15T02:57:36.501Z,95560.47
2018-04-15T03:00:04.855Z,95548.95
2018-04-15T03:02:33.159Z,95547.05
2018-04-15T03:05:01.525Z,95543.11
2018-04-15T03:07:29.839Z,95539.84
2018-04-15T03:09:58.459Z,95541.63
2018-04-15T03:12:26.772Z,95532.64
2018-04-15T03:14:55.113Z,95527.93
2018-04-15T03:17:23.520Z,95528.23
2018-04-15T03:19:51.830Z,95526.18
2018-04-15T03:22:20.172Z,95531.42
2018-04-15T03:24:48.469Z,95537.73
2018-04-15T03:27:16.806Z,95549.73
2018-04-15T03:29:45.125Z,95545.31
2018-04-15T03:32:13.522Z,95545.70
2018-04-15T03:34:41.817Z,95556.64
2018-04-15T03:37:10.225Z,95560.02
2018-04-15T03:39:38.614Z,95561.20
2018-04-15T03:42:06.989Z,95554.30
2018-04-15T03:44:35.294Z,95560.84
2018-04-15T03:47:03.691Z,95564.03
2018-04-15T03:49:31.995Z,95565.02
2018-04-15T03:52:00.323Z,95566.92
2018-04-15T03:54:28.681Z,95570.56
2018-04-15T03:56:57.046Z,95581.77
2018-04-15T03:59:25.450Z,95583.83
2018-04-15T04:01:53.742Z,95590.08
2018-04-15T04:04:22.075Z,95586.92
2018-04-15T04:06:50.365Z,95582.03
2018-04-15T04:09:18.891Z,95580.64
2018-04-15T04:11:47.220Z,95584.34
2018-04-15T04:14:15.559Z,95584.05
2018-04-15T04:16:43.880Z,95576.95
2018-04-15T04:19:24.138Z,95580.77
2018-04-15T04:22:04.500Z,95569.16
2018-04-15T04:24:44.649Z,95566.52
2018-04-15T04:27:13.027Z,95565.11
2018-04-15T04:29:41.373Z,95568.27
2018-04-15T04:32:09.676Z,95557.40
2018-04-15T04:34:38.037Z,95564.42
2018-04-15T04:37:06.333Z,95561.72
2018-04-15T04:39:34.680Z,95566.13
2018-04-15T04:42:03.121Z,95561.73
2018-04-15T04:44:31.467Z,95562.70
2018-04-15T04:46:59.805Z,95561.30
2018-04-15T04:49:28.141Z,95560.23
2018-04-15T04:51:56.474Z,95561.22
2018-04-15T04:54:24.764Z,95565.38
2018-04-15T04:56:53.100Z,95572.83
2018-04-15T04:59:21.410Z,95577.14
2018-04-15T05:01:49.810Z,95578.48
2018-04-15T05:04:18.121Z,95580.06
2018-04-15T05:06:46.449Z,95578.80
2018-04-15T05:09:15.026Z,95577.66
2018-04-15T05:11:43.338Z,95588.78
2018-04-15T05:14:11.652Z,95590.41
2018-04-15T05:16:40.084Z,95585.20
2018-04-15T05:19:08.461Z,95581.66
2018-04-15T05:21:36.840Z,95583.11
2018-04-15T05:24:05.220Z,95584.47
2018-04-15T05:26:33.719Z,95588.23
2018-04-15T05:29:02.080Z,95582.23
2018-04-15T05:31:30.395Z,95595.67
2018-04-15T05:33:58.838Z,95594.19
2018-04-15T05:36:27.140Z,95596.30
2018-04-15T05:38:55.491Z,95596.98
2018-04-15T05:41:23.811Z,95596.99
2018-04-15T05:43:52.146Z,95602.25
2018-04-15T05:46:20.528Z,95598.89
2018-04-15T05:48:48.885Z,95596.79
2018-04-15T05:51:17.197Z,95590.70
2018-04-15T05:53:45.513Z,95590.75
2018-04-15T05:56:14.826Z,95580.81
2018-04-15T05:58:43.149Z,95571.91
2018-04-15T06:01:11.473Z,95572.98
2018-04-15T06:03:39.817Z,95572.92
2018-04-15T06:06:08.133Z,95573.28
2018-04-15T06:08:36.533Z,95561.47
2018-04-15T06:11:04.928Z,95558.13
2018-04-15T06:13:33.265Z,95558.86
2018-04-15T06:16:01.756Z,95557.92
2018-04-15T06:18:30.168Z,95555.91
2018-04-15T06:20:58.547Z,95554.16
2018-04-15T06:23:26.874Z,95552.17
2018-04-15T06:25:55.418Z,95556.92
2018-04-15T06:28:23.808Z,95554.33
2018-04-15T06:30:52.160Z,95558.69
2018-04-15T06:33:20.556Z,95566.53
2018-04-15T06:35:48.885Z,95562.14
2018-04-15T06:38:17.201Z,95561.71
2018-04-15T06:40:45.542Z,95552.29
2018-04-15T06:43:13.854Z,95562.28
2018-04-15T06:45:42.188Z,95561.73
2018-04-15T06:48:10.504Z,95560.25
2018-04-15T06:50:38.878Z,95558.50
2018-04-15T06:53:07.188Z,95558.37
2018-04-15T06:55:35.531Z,95556.00
2018-04-15T06:58:03.841Z,95550.55
2018-04-15T07:00:32.281Z,95547.00
2018-04-15T07:03:00.593Z,95543.64
2018-04-15T07:05:28.907Z,95546.48
2018-04-15T07:07:57.245Z,95539.58
2018-04-15T07:10:25.559Z,95531.09
2018-04-15T07:12:53.965Z,95518.75
2018-04-15T07:15:22.276Z,95514.77
2018-04-15T07:17:50.629Z,95505.04
2018-04-15T07:20:18.957Z,95515.63
2018-04-15T07:22:47.276Z,95513.17
2018-04-15T07:25:15.654Z,95513.38
2018-04-15T07:27:44.035Z,95510.11
2018-04-15T07:30:12.424Z,95510.86
2018-04-15T07:32:40.794Z,95511.58
2018-04-15T07:35:09.106Z,95519.78
2018-04-15T07:37:37.760Z,95519.86
2018-04-15T07:40:06.132Z,95516.26
2018-04-15T07:42:34.517Z,95510.86
2018-04-15T07:45:02.886Z,95517.47
2018-04-15T07:47:31.225Z,95511.59
2018-04-15T07:49:59.543Z,95505.36
2018-04-15T07:52:27.917Z,95509.85
2018-04-15T07:54:56.248Z,95515.98
2018-04-15T07:57:24.581Z,95508.34
2018-04-15T07:59:52.949Z,95504.51
2018-04-15T08:02:21.398Z,95502.73
2018-04-15T08:04:49.673Z,95496.29
2018-04-15T08:07:17.981Z,95496.16
2018-04-15T08:09:46.385Z,95496.81
2018-04-15T08:12:14.700Z,95501.73
2018-04-15T08:14:43.041Z,95510.77
2018-04-15T08:17:11.455Z,95515.42
2018-04-15T08:19:39.876Z,95524.80
2018-04-15T08:22:08.200Z,95528.08
2018-04-15T08:24:36.546Z,95521.48
2018-04-15T08:27:04.936Z,95532.41
2018-04-15T08:29:33.273Z,95534.00
2018-04-15T08:32:01.634Z,95512.66
2018-04-15T08:34:30.041Z,95513.27
2018-04-15T08:36:58.429Z,95520.84
2018-04-15T08:39:26.757Z,95521.50
2018-04-15T08:41:55.085Z,95512.48
2018-04-15T08:44:23.425Z,95510.17
2018-04-15T08:46:51.745Z,95517.80
2018-04-15T08:49:20.117Z,95507.64
2018-04-15T08:51:48.457Z,95502.72
2018-04-15T08:54:16.870Z,95496.05
2018-04-15T08:56:45.248Z,95496.73
2018-04-15T08:59:13.625Z,95500.23
2018-04-15T09:01:41.978Z,95491.88
2018-04-15T09:04:10.316Z,95487.92
2018-04-15T09:06:38.661Z,95494.78
2018-04-15T09:09:07.090Z,95496.66
2018-04-15T09:11:35.414Z,95495.16
2018-04-15T09:14:03.736Z,95494.01
2018-04-15T09:16:32.072Z,95498.37
2018-04-15T09:19:00.388Z,95486.51
2018-04-15T09:21:28.750Z,95492.50
2018-04-15T09:23:57.142Z,95484.19
2018-04-15T09:26:25.630Z,95488.47
2018-04-15T09:28:53.941Z,95488.29
2018-04-15T09:31:22.289Z,95489.14
2018-04-15T09:33:50.609Z,95483.21
2018-04-15T09:36:18.944Z,95479.33
2018-04-15T09:38:47.261Z,95480.20
2018-04-15T09:41:15.601Z,95473.84
2018-04-15T09:43:43.974Z,95478.27
2018-04-15T09:46:12.274Z,95479.83
2018-04-15T09:48:40.613Z,95470.98
2018-04-15T09:51:11.091Z,95463.70
2018-04-15T09:53:39.449Z,95458.37
2018-04-15T09:56:07.779Z,95452.00
2018-04-15T09:58:36.121Z,95461.00
2018-04-15T10:01:04.430Z,95460.47
2018-04-15T10:03:32.845Z,95457.61
2018-04-15T10:06:01.217Z,95452.75
2018-04-15T10:08:29.548Z,95457.89
2018-04-15T10:10:57.917Z,95454.20
2018-04-15T10:13:26.198Z,95451.95
2018-04-15T10:15:54.504Z,95438.41
2018-04-15T10:18:22.873Z,95440.35
2018-04-15T10:20:51.277Z,95428.00
2018-04-15T10:23:19.606Z,95431.94
2018-04-15T10:25:47.917Z,95428.17
2018-04-15T10:28:16.242Z,95424.06
2018-04-15T10:30:44.570Z,95417.38
2018-04-15T10:33:12.936Z,95421.93
2018-04-15T10:35:41.259Z,95423.69
2018-04-15T10:38:09.677Z,95425.66
2018-04-15T10:40:38.060Z,95434.86
2018-04-15T10:43:06.376Z,95438.20
2018-04-15T10:45:34.820Z,95430.36
2018-04-15T10:48:03.137Z,95425.81
2018-04-15T10:50:31.491Z,95433.66
2018-04-15T10:52:59.808Z,95431.10
2018-04-15T10:55:28.183Z,95417.66
2018-04-15T10:57:56.483Z,95414.75
2018-04-15T11:00:24.892Z,95410.50
2018-04-15T11:02:53.268Z,95400.02
2018-04-15T11:05:21.606Z,95398.02
2018-04-15T11:07:49.959Z,95398.88
2018-04-15T11:10:18.438Z,95392.11
2018-04-15T11:12:46.787Z,95382.59
2018-04-15T11:15:15.171Z,95390.70
2018-04-15T11:17:43.477Z,95379.52
2018-04-15T11:20:11.905Z,95379.39
2018-04-15T11:22:40.217Z,95365.48
2018-04-15T11:25:08.677Z,95363.05
2018-04-15T11:27:37.088Z,95352.01
2018-04-15T11:30:05.733Z,95340.96
2018-04-15T11:32:34.147Z,95337.53
2018-04-15T11:35:02.484Z,95345.47
2018-04-15T11:37:30.816Z,95355.51
2018-04-15T11:39:59.251Z,95353.97
2018-04-15T11:42:27.607Z,95357.64
2018-04-15T11:44:55.929Z,95355.11
2018-04-15T11:47:24.269Z,95344.06
2018-04-15T11:49:52.581Z,95337.94
2018-04-15T11:52:21.025Z,95329.01
2018-04-15T11:54:49.519Z,95322.19
2018-04-15T11:57:17.851Z,95321.37
2018-04-15T11:59:46.164Z,95328.89
2018-04-15T12:02:14.531Z,95337.98
2018-04-15T12:04:43.184Z,95334.58
2018-04-15T12:07:11.604Z,95332.68
2018-04-15T12:09:39.912Z,95327.33
2018-04-15T12:12:08.298Z,95322.21
2018-04-15T12:14:36.634Z,95325.70
2018-04-15T12:17:05.022Z,95322.39
2018-04-15T12:19:33.362Z,95314.05
2018-04-15T12:22:01.818Z,95314.33
2018-04-15T12:24:30.148Z,95304.06
2018-04-15T12:26:58.492Z,95303.52
2018-04-15T12:29:26.912Z,95303.76
2018-04-15T12:31:55.233Z,95305.44
2018-04-15T12:34:23.567Z,95305.18
2018-04-15T12:36:51.873Z,95307.19
2018-04-15T12:39:20.192Z,95302.31
2018-04-15T12:41:48.589Z,95297.11
2018-04-15T12:44:17.002Z,95298.53
2018-04-15T12:46:45.356Z,95290.59
2018-04-15T12:49:13.670Z,95294.75
2018-04-15T12:51:42.116Z,95294.70
2018-04-15T12:54:10.429Z,95290.22
2018-04-15T12:56:38.768Z,95281.21
2018-04-15T12:59:07.090Z,95284.63
2018-04-15T13:01:35.427Z,95278.83
2018-04-15T13:04:03.749Z,95290.09
2018-04-15T13:06:32.081Z,95290.02
2018-04-15T13:09:00.408Z,95292.41
2018-04-15T13:11:28.739Z,95287.86
2018-04-15T13:13:57.057Z,95288.04
2018-04-15T13:16:25.492Z,95282.37
2018-04-15T13:18:53.810Z,95263.37
2018-04-15T13:21:22.150Z,95257.25
2018-04-15T13:23:50.470Z,95268.75
2018-04-15T13:26:18.823Z,95279.30
2018-04-15T13:28:47.168Z,95275.00
2018-04-15T13:31:15.485Z,95273.58
2018-04-15T13:33:43.845Z,95272.16
2018-04-15T13:36:12.165Z,95266.61
2018-04-15T13:38:40.500Z,95264.03
2018-04-15T13:41:08.829Z,95253.85
2018-04-15T13:43:37.281Z,95251.68
2018-04-15T13:46:05.620Z,95242.81
2018-04-15T13:48:33.948Z,95247.28
2018-04-15T13:51:02.380Z,95254.91
2018-04-15T13:53:30.781Z,95254.50
2018-04-15T13:55:59.098Z,95245.70
2018-04-15T13:58:27.436Z,95230.23
2018-04-15T14:00:55.786Z,95224.66
2018-04-15T14:03:24.130Z,95218.05
2018-04-15T14:05:52.549Z,95217.16
2018-04-15T14:08:21.038Z,95221.58
2018-04-15T14:10:49.381Z,95225.70
2018-04-15T14:13:17.781Z,95213.08
2018-04-15T14:15:46.121Z,95214.97
2018-04-15T14:18:14.454Z,95216.59
2018-04-15T14:20:42.914Z,95208.48
2018-04-15T14:23:11.289Z,95202.48
2018-04-15T14:25:39.721Z,95196.36
2018-04-15T14:28:08.026Z,95196.73
2018-04-15T14:30:36.369Z,95197.02
2018-04-15T14:33:04.720Z,95198.26
2018-04-15T14:35:33.064Z,95190.11
2018-04-15T14:38:01.378Z,95189.74
2018-04-15T14:40:29.726Z,95179.20
2018-04-15T14:42:58.056Z,95171.45
2018-04-15T14:45:26.494Z,95169.23
2018-04-15T14:47:54.795Z,95164.91
2018-04-15T14:50:23.254Z,95168.14
2018-04-15T14:52:51.617Z,95160.07
2018-04-15T14:55:19.961Z,95167.36
2018-04-15T14:57:48.283Z,95169.29
2018-04-15T15:00:16.636Z,95166.73
2018-04-15T15:02:44.949Z,95161.91
2018-04-15T15:05:13.268Z,95162.45
2018-04-15T15:07:41.600Z,95157.02
2018-04-15T15:10:09.912Z,95158.17
2018-04-15T15:12:38.264Z,95159.02
2018-04-15T15:15:06.571Z,95153.14
2018-04-15T15:17:34.937Z,95155.88
2018-04-15T15:20:03.246Z,95153.58
2018-04-15T15:22:31.584Z,95159.72
2018-04-15T15:24:59.933Z,95163.29
2018-04-15T15:27:28.298Z,95165.88
2018-04-15T15:29:56.693Z,95164.05
2018-04-15T15:32:25.038Z,95159.73
2018-04-15T15:34:53.456Z,95156.72
2018-04-15T15:37:21.833Z,95151.44
2018-04-15T15:39:50.138Z,95146.17
2018-04-15T15:42:18.581Z,95148.94
2018-04-15T15:44:46.896Z,95145.98
2018-04-15T15:47:15.327Z,95148.40
2018-04-15T15:49:43.647Z,95150.98
2018-04-15T15:52:11.989Z,95155.55
2018-04-15T15:54:40.328Z,95159.47
2018-04-15T15:57:08.754Z,95156.38
2018-04-15T15:59:37.126Z,95160.32
2018-04-15T16:02:05.494Z,95163.53
2018-04-15T16:04:33.920Z,95163.75
2018-04-15T16:07:02.270Z,95168.48
2018-04-15T16:09:30.593Z,95179.91
2018-04-15T16:11:59.013Z,95179.33
2018-04-15T16:14:27.397Z,95183.81
2018-04-15T16:16:55.715Z,95179.70
2018-04-15T16:19:24.090Z,95168.50
2018-04-15T16:21:52.389Z,95162.44
2018-04-15T16:24:20.798Z,95136.52
2018-04-15T16:26:49.109Z,95121.27
2018-04-15T16:29:17.603Z,95130.47
2018-04-15T16:31:45.950Z,95148.36
2018-04-15T16:34:14.349Z,95152.47
2018-04-15T16:36:42.668Z,95159.32
2018-04-15T16:39:11.008Z,95150.11
2018-04-15T16:41:39.412Z,95146.00
2018-04-15T16:44:07.746Z,95134.43
2018-04-15T16:46:36.072Z,95138.18
2018-04-15T16:49:04.495Z,95130.33
2018-04-15T16:51:32.813Z,95136.41
2018-04-15T16:54:01.158Z,95137.78
2018-04-15T16:56:29.465Z,95147.19
2018-04-15T16:58:57.785Z,95148.58
2018-04-15T17:01:26.214Z,95145.83
2018-04-15T17:03:54.536Z,95143.09
2018-04-15T17:06:22.863Z,95148.38
2018-04-15T17:08:51.210Z,95146.42
2018-04-15T17:11:19.572Z,95142.30
2018-04-15T17:13:47.877Z,95140.14
2018-04-15T17:16:16.253Z,95133.88
2018-04-15T17:18:44.614Z,95130.34
2018-04-15T17:21:13.009Z,95132.68
2018-04-15T17:23:41.415Z,95133.48
2018-04-15T17:26:09.718Z,95132.88
2018-04-15T17:28:38.044Z,95136.99
2018-04-15T17:31:06.416Z,95138.77
2018-04-15T17:33:34.793Z,95149.73
2018-04-15T17:36:03.114Z,95149.54
2018-04-15T17:38:32.436Z,95159.73
2018-04-15T17:41:00.755Z,95167.33
2018-04-15T17:43:29.112Z,95164.78
2018-04-15T17:45:57.479Z,95165.14
2018-04-15T17:48:25.782Z,95174.94
2018-04-15T17:50:54.112Z,95177.06
2018-04-15T17:53:22.437Z,95177.06
2018-04-15T17:55:50.768Z,95180.34
2018-04-15T17:58:19.103Z,95186.02
2018-04-15T18:00:47.495Z,95183.87
2018-04-15T18:03:15.845Z,95187.20
2018-04-15T18:05:44.145Z,95181.88
2018-04-15T18:08:12.481Z,95175.22
2018-04-15T18:10:40.797Z,95174.91
2018-04-15T18:13:09.140Z,95181.56
2018-04-15T18:15:37.460Z,95183.87
2018-04-15T18:18:05.808Z,95185.44
2018-04-15T18:20:34.223Z,95178.19
2018-04-15T18:23:02.557Z,95187.98
2018-04-15T18:25:30.868Z,95194.59
2018-04-15T18:27:59.206Z,95199.87
2018-04-15T18:30:27.527Z,95200.61
2018-04-15T18:32:55.862Z,95203.93
2018-04-15T18:35:24.193Z,95208.45
2018-04-15T18:37:52.526Z,95210.59
2018-04-15T18:40:20.907Z,95219.40
2018-04-15T18:42:49.254Z,95211.09
2018-04-15T18:45:17.600Z,95204.27
2018-04-15T18:47:45.970Z,95203.86
2018-04-15T18:50:14.340Z,95205.82
2018-04-15T18:52:42.708Z,95213.06
2018-04-15T18:55:11.040Z,95216.00
2018-04-15T18:57:39.350Z,95219.16
2018-04-15T19:00:07.714Z,95211.02
2018-04-15T19:02:36.041Z,95212.70
2018-04-15T19:05:04.373Z,95216.61
2018-04-15T19:07:32.763Z,95216.80
2018-04-15T19:10:01.105Z,95226.76
2018-04-15T19:12:29.505Z,95220.49
2018-04-15T19:14:57.893Z,95217.55
2018-04-15T19:17:26.213Z,95222.56
2018-04-15T19:19:54.548Z,95217.50
2018-04-15T19:22:22.889Z,95222.17
2018-04-15T19:24:51.234Z,95236.16
2018-04-15T19:27:19.534Z,95232.14
2018-04-15T19:29:47.871Z,95240.95
2018-04-15T19:32:16.200Z,95245.84
2018-04-15T19:34:44.531Z,95242.73
2018-04-15T19:37:12.920Z,95246.31
2018-04-15T19:39:41.270Z,95260.37
2018-04-15T19:42:09.596Z,95259.98
2018-04-15T19:44:37.918Z,95257.94
2018-04-15T19:47:06.282Z,95256.69
2018-04-15T19:49:34.677Z,95250.89
2018-04-15T19:52:03.003Z,95247.27
2018-04-15T19:54:31.432Z,95239.03
2018-04-15T19:56:59.817Z,95228.90
2018-04-15T19:59:28.161Z,95220.30
2018-04-15T20:01:56.478Z,95218.75
2018-04-15T20:04:24.838Z,95218.75
2018-04-15T20:06:53.227Z,95214.87
2018-04-15T20:09:21.570Z,95222.92
2018-04-15T20:11:49.923Z,95227.14
2018-04-15T20:14:18.382Z,95237.00
2018-04-15T20:16:46.734Z,95248.25
2018-04-15T20:19:15.083Z,95256.45
2018-04-15T20:21:43.405Z,95249.34
2018-04-15T20:24:11.750Z,95251.67
2018-04-15T20:26:40.133Z,95259.75
2018-04-15T20:29:08.513Z,95260.32
2018-04-15T20:31:36.843Z,95262.83
2018-04-15T20:34:05.187Z,95265.10
2018-04-15T20:36:33.513Z,95259.48
2018-04-15T20:39:01.856Z,95260.95
2018-04-15T20:41:30.206Z,95257.88
2018-04-15T20:43:58.564Z,95252.03
2018-04-15T20:46:26.884Z,95249.53
2018-04-15T20:48:55.222Z,95241.67
2018-04-15T20:51:23.550Z,95249.92
2018-04-15T20:53:51.876Z,95244.72
2018-04-15T20:56:20.275Z,95249.30
2018-04-15T20:58:48.633Z,95250.95
2018-04-15T21:01:17.029Z,95255.88
2018-04-15T21:03:45.297Z,95262.03
2018-04-15T21:06:13.645Z,95260.60
2018-04-15T21:08:41.976Z,95258.91
2018-04-15T21:11:10.339Z,95269.41
2018-04-15T21:13:38.686Z,95260.06
2018-04-15T21:16:07.035Z,95259.22
2018-04-15T21:18:35.368Z,95263.91
2018-04-15T21:21:03.722Z,95265.14
2018-04-15T21:23:32.056Z,95272.01
2018-04-15T21:26:00.396Z,95272.94
2018-04-15T21:28:28.742Z,95274.11
2018-04-15T21:30:57.094Z,95274.39
2018-04-15T21:33:25.442Z,95276.02
2018-04-15T21:35:53.784Z,95276.08
2018-04-15T21:38:22.155Z,95270.16
2018-04-15T21:40:50.561Z,95265.23
2018-04-15T21:43:18.885Z,95259.64
2018-04-15T21:45:47.321Z,95262.27
2018-04-15T21:48:15.648Z,95254.72
2018-04-15T21:50:43.985Z,95251.23
2018-04-15T21:53:12.320Z,95248.97
2018-04-15T21:55:40.686Z,95241.30
2018-04-15T21:58:09.112Z,95228.52
2018-04-15T22:00:37.440Z,95219.58
2018-04-15T22:03:05.789Z,95233.33
2018-04-15T22:05:34.113Z,95244.03
2018-04-15T22:08:02.530Z,95256.06
2018-04-15T22:10:30.850Z,95261.09
2018-04-15T22:13:08.200Z,95262.19
2018-04-15T22:15:36.568Z,95269.39
2018-04-15T22:18:04.953Z,95275.15
2018-04-15T22:20:33.333Z,95273.63
2018-04-15T22:23:01.684Z,95267.37
2018-04-15T22:25:30.024Z,95264.82
2018-04-15T22:27:58.361Z,95261.48
2018-04-15T22:30:26.697Z,95269.74
2018-04-15T22:32:55.034Z,95276.69
2018-04-15T22:35:23.397Z,95270.84
2018-04-15T22:37:51.734Z,95265.50
2018-04-15T22:40:20.062Z,95267.19
2018-04-15T22:42:48.405Z,95271.08
2018-04-15T22:45:16.809Z,95269.48
2018-04-15T22:47:50.949Z,95268.02
2018-04-15T22:50:19.297Z,95268.06
2018-04-15T22:52:47.636Z,95271.08
2018-04-15T22:55:15.968Z,95266.77
2018-04-15T22:57:44.328Z,95266.41
2018-04-15T23:00:12.661Z,95263.52
2018-04-15T23:02:41.109Z,95255.48
2018-04-15T23:05:09.461Z,95247.73
2018-04-15T23:07:38.263Z,95252.84
2018-04-15T23:10:06.621Z,95248.72
2018-04-15T23:12:34.995Z,95250.58
2018-04-15T23:15:03.387Z,95246.28
2018-04-15T23:17:31.756Z,95244.09
2018-04-15T23:20:00.109Z,95246.00
2018-04-15T23:22:28.425Z,95249.53
2018-04-15T23:24:56.799Z,95248.89
2018-04-15T23:27:25.129Z,95240.28
2018-04-15T23:29:53.488Z,95244.14
2018-04-15T23:32:21.827Z,95245.06
2018-04-15T23:34:50.164Z,95241.27
2018-04-15T23:37:18.497Z,95245.73
2018-04-15T23:39:46.832Z,95239.50
2018-04-15T23:42:15.168Z,95232.70
2018-04-15T23:44:43.579Z,95231.01
2018-04-15T23:47:11.888Z,95240.00
2018-04-15T23:49:40.236Z,95245.20
2018-04-15T23:52:08.654Z,95231.73
2018-04-15T23:54:37.036Z,95239.23
2018-04-15T23:57:05.386Z,95246.50
2018-04-15T23:59:33.733Z,95243.20
